Time;durP1;ratioP1;P1;durP2;ratioP2;P2;SDS_P1;SDS_P2;PMS_P1;PMS_P2;Temp;Humidity;BMP_temperature;BMP_pressure;BME280_temperature;BME280_humidity;BME280_pressure;Samples;Min_cycle;Max_cycle;Signal;HPM_P1;HPM_P2
2021/04/08 05:14:15;;;;;;;0.32;0.30;;;18.50;59.20;;;;;;5025862;28;20464;-55
2021/04/08 05:16:41;;;;;;;0.93;0.30;;;18.90;58.50;;;;;;5023723;28;20542;-57
2021/04/08 05:19:07;;;;;;;0.30;0.30;;;18.90;59.10;;;;;;5021769;28;20503;-51
2021/04/08 05:21:32;;;;;;;0.30;0.30;;;19.00;58.30;;;;;;5022443;28;20026;-56
2021/04/08 05:23:58;;;;;;;0.38;0.35;;;19.00;58.20;;;;;;5025519;28;20029;-56
2021/04/08 05:26:23;;;;;;;0.20;0.20;;;19.00;58.00;;;;;;5024947;28;20450;-57
2021/04/08 05:28:49;;;;;;;0.30;0.30;;;19.10;57.90;;;;;;5026262;28;20041;-57
2021/04/08 05:31:14;;;;;;;0.30;0.30;;;19.10;57.70;;;;;;5024215;28;20105;-57
2021/04/08 05:33:40;;;;;;;0.50;0.40;;;19.20;57.60;;;;;;5021524;28;20026;-58
2021/04/08 05:36:06;;;;;;;0.43;0.32;;;19.20;57.60;;;;;;5022700;28;20406;-57
2021/04/08 05:38:31;;;;;;;0.43;0.20;;;19.10;57.60;;;;;;5025846;28;20034;-58
2021/04/08 05:40:57;;;;;;;0.20;0.20;;;19.10;57.50;;;;;;5024240;28;20049;-55
2021/04/08 05:43:22;;;;;;;0.30;0.30;;;19.10;57.50;;;;;;5026542;28;20061;-54
2021/04/08 05:45:48;;;;;;;0.30;0.30;;;19.20;57.40;;;;;;5025880;28;20026;-56
2021/04/08 05:48:13;;;;;;;0.30;0.30;;;19.20;57.30;;;;;;5026675;28;20582;-56
2021/04/08 05:50:40;;;;;;;0.30;0.28;;;19.20;57.30;;;;;;5018144;28;20033;-55
2021/04/08 05:53:05;;;;;;;0.38;0.30;;;19.20;57.30;;;;;;5021551;28;20399;-55
2021/04/08 05:55:31;;;;;;;0.30;0.30;;;19.20;57.00;;;;;;5025685;28;20029;-55
2021/04/08 05:57:56;;;;;;;0.40;0.40;;;19.20;57.00;;;;;;5024619;28;20029;-57
2021/04/08 06:00:22;;;;;;;0.30;0.30;;;19.20;57.70;;;;;;5025926;28;20037;-57
2021/04/08 06:02:48;;;;;;;0.40;0.35;;;19.30;57.00;;;;;;5025821;28;20033;-58
2021/04/08 06:05:14;;;;;;;0.35;0.35;;;19.20;56.90;;;;;;5021446;28;20040;-57
2021/04/08 06:07:40;;;;;;;0.38;0.38;;;19.20;56.80;;;;;;5025639;28;20057;-58
2021/04/08 06:10:06;;;;;;;0.47;0.45;;;19.10;56.70;;;;;;5024985;28;20483;-58
2021/04/08 06:12:31;;;;;;;2.20;0.38;;;19.10;57.20;;;;;;5025281;28;20107;-59
2021/04/08 06:14:57;;;;;;;0.50;0.50;;;19.10;56.90;;;;;;5012552;28;20488;-59
2021/04/08 06:17:23;;;;;;;0.40;0.40;;;19.00;56.80;;;;;;5010740;28;20026;-59
2021/04/08 06:19:49;;;;;;;0.52;0.52;;;19.00;56.50;;;;;;5012534;28;20431;-56
2021/04/08 06:22:14;;;;;;;0.30;0.30;;;19.00;56.80;;;;;;5009179;28;20061;-59
2021/04/08 06:24:40;;;;;;;1.50;0.35;;;19.10;57.60;;;;;;5005340;28;20503;-58
2021/04/08 06:27:06;;;;;;;3.35;0.30;;;19.10;56.80;;;;;;4999589;28;20038;-58
2021/04/08 06:29:32;;;;;;;0.55;0.50;;;19.00;56.50;;;;;;5005080;28;20403;-61
2021/04/08 06:31:57;;;;;;;0.55;0.43;;;19.00;57.30;;;;;;5007269;28;20141;-62
2021/04/08 06:34:23;;;;;;;0.95;0.75;;;19.00;56.60;;;;;;5012484;28;20042;-60
2021/04/08 06:36:48;;;;;;;0.52;0.52;;;19.00;56.80;;;;;;5008549;28;20065;-62
2021/04/08 06:39:14;;;;;;;0.75;0.40;;;19.00;57.00;;;;;;5007480;28;20053;-60
2021/04/08 06:41:40;;;;;;;0.45;0.45;;;19.00;57.40;;;;;;5007463;28;20089;-60
2021/04/08 06:44:06;;;;;;;0.70;0.55;;;19.00;58.40;;;;;;5005414;28;20128;-37
2021/04/08 06:46:34;;;;;;;3.78;0.93;;;19.00;57.00;;;;;;5010815;28;20540;-60
2021/04/08 06:49:18;;;;;;;0.55;0.52;;;19.00;57.70;;;;;;5007673;28;20128;-60
2021/04/08 06:51:43;;;;;;;0.52;0.52;;;19.00;56.70;;;;;;5007570;28;20136;-59
2021/04/08 06:54:09;;;;;;;0.68;0.50;;;19.00;56.80;;;;;;5007536;28;20559;-54
2021/04/08 06:56:35;;;;;;;0.68;0.60;;;19.10;56.60;;;;;;5008833;28;20046;-51
2021/04/08 06:59:00;;;;;;;2.47;0.68;;;19.10;56.60;;;;;;5008665;28;20077;-54
2021/04/08 07:01:26;;;;;;;0.50;0.50;;;19.10;56.50;;;;;;5006620;28;20584;-50
2021/04/08 07:03:52;;;;;;;0.55;0.55;;;19.10;56.40;;;;;;4999799;28;20042;-56
2021/04/08 07:06:18;;;;;;;0.45;0.40;;;19.10;56.30;;;;;;5005388;28;20099;-58
2021/04/08 07:08:45;;;;;;;1.10;0.50;;;19.10;56.50;;;;;;5006839;28;20499;-52
2021/04/08 07:11:10;;;;;;;0.50;0.50;;;19.10;56.60;;;;;;5006587;28;20140;-55
2021/04/08 07:13:36;;;;;;;0.50;0.45;;;19.10;56.50;;;;;;5007399;28;20093;-51
2021/04/08 07:16:02;;;;;;;0.32;0.32;;;19.20;56.90;;;;;;5007772;28;20443;-58
2021/04/08 07:18:28;;;;;;;0.82;0.40;;;19.20;56.90;;;;;;5021802;28;20050;-58
2021/04/08 07:20:54;;;;;;;0.60;0.40;;;19.20;56.80;;;;;;5005551;28;20573;-56
2021/04/08 07:23:20;;;;;;;2.05;0.60;;;19.30;56.60;;;;;;4999410;28;20046;-61
2021/04/08 07:26:07;;;;;;;0.60;0.57;;;19.40;56.60;;;;;;5009348;28;20420;-60
2021/04/08 07:28:43;;;;;;;0.40;0.40;;;19.30;56.40;;;;;;5006318;28;20069;-61
2021/04/08 07:31:21;;;;;;;1.63;0.60;;;19.30;56.40;;;;;;5013643;28;20053;-50
2021/04/08 07:33:47;;;;;;;1.05;0.70;;;19.40;56.20;;;;;;5018544;28;20057;-62
2021/04/08 07:36:26;;;;;;;0.60;0.60;;;19.50;56.00;;;;;;5024650;28;20050;-63
2021/04/08 07:38:51;;;;;;;0.60;0.60;;;19.60;55.90;;;;;;5010538;28;20077;-62
2021/04/08 07:41:31;;;;;;;0.77;0.50;;;19.70;55.50;;;;;;5009101;28;20046;-63
2021/04/08 07:44:01;;;;;;;0.50;0.50;;;19.70;55.30;;;;;;5013462;28;20056;-62
2021/04/08 07:46:34;;;;;;;0.60;0.60;;;20.00;54.80;;;;;;5005734;28;20050;-57
2021/04/08 07:48:59;;;;;;;0.60;0.52;;;20.10;54.30;;;;;;5007771;28;20056;-59
2021/04/08 07:51:32;;;;;;;0.70;0.70;;;20.40;54.00;;;;;;5006145;28;20149;-59
2021/04/08 07:54:15;;;;;;;0.40;0.40;;;20.60;53.30;;;;;;5034079;28;20415;-59
2021/04/08 07:56:42;;;;;;;0.50;0.47;;;20.70;53.10;;;;;;5003161;28;20057;-63
2021/04/08 07:59:22;;;;;;;0.68;0.60;;;20.80;52.90;;;;;;5001152;28;20104;-61
2021/04/08 08:02:00;;;;;;;0.75;0.50;;;20.60;53.40;;;;;;5003368;28;20125;-61
2021/04/08 08:04:26;;;;;;;0.50;0.50;;;20.30;53.80;;;;;;5005663;28;20054;-59
2021/04/08 08:06:52;;;;;;;2.47;0.70;;;20.20;54.20;;;;;;5006032;28;20042;-60
2021/04/08 08:09:22;;;;;;;0.47;0.47;;;20.10;54.40;;;;;;5003917;28;20125;-57
2021/04/08 08:11:49;;;;;;;0.73;0.50;;;20.10;54.90;;;;;;5006226;28;20423;-57
2021/04/08 08:14:16;;;;;;;1.65;0.50;;;20.00;54.70;;;;;;5004823;28;20062;-58
2021/04/08 08:16:42;;;;;;;2.42;0.90;;;19.90;54.90;;;;;;5004691;28;20050;-58
2021/04/08 08:19:07;;;;;;;0.70;0.60;;;19.90;55.10;;;;;;5023028;28;20411;-60
2021/04/08 08:21:37;;;;;;;0.50;0.50;;;19.80;55.00;;;;;;5019389;28;20045;-59
2021/04/08 08:24:07;;;;;;;0.50;0.50;;;19.90;55.00;;;;;;5006644;28;20145;-61
2021/04/08 08:26:37;;;;;;;1.75;0.47;;;20.00;54.70;;;;;;5006025;28;20046;-58
2021/04/08 08:29:08;;;;;;;1.58;0.60;;;20.00;54.50;;;;;;5005855;28;20056;-61
2021/04/08 08:31:35;;;;;;;1.40;0.50;;;19.90;54.50;;;;;;5002799;28;20169;-58
2021/04/08 08:34:05;;;;;;;0.50;0.50;;;19.90;55.20;;;;;;5003800;28;20041;-60
2021/04/08 08:36:31;;;;;;;0.47;0.47;;;19.80;54.50;;;;;;5001090;28;20471;-59
2021/04/08 08:38:57;;;;;;;1.20;0.50;;;19.90;54.60;;;;;;5003206;28;20048;-58
2021/04/08 08:41:22;;;;;;;0.82;0.60;;;19.80;54.50;;;;;;5001178;28;20050;-59
2021/04/08 08:43:48;;;;;;;3.28;0.80;;;19.90;54.50;;;;;;5005015;28;20049;-60
2021/04/08 08:46:14;;;;;;;1.02;0.60;;;19.80;54.40;;;;;;5007079;28;20084;-57
2021/04/08 08:48:39;;;;;;;2.85;0.77;;;19.90;54.80;;;;;;5006908;28;20060;-56
2021/04/08 08:51:05;;;;;;;0.70;0.70;;;19.90;54.40;;;;;;5020094;28;20046;-60
2021/04/08 08:53:31;;;;;;;0.82;0.60;;;19.90;55.10;;;;;;5005489;28;20046;-60
2021/04/08 08:55:57;;;;;;;1.17;0.65;;;19.80;54.70;;;;;;5005530;28;20577;-59
2021/04/08 08:58:22;;;;;;;4.50;0.80;;;19.90;55.10;;;;;;5005990;28;20133;-58
2021/04/08 09:00:48;;;;;;;1.75;0.73;;;20.00;54.90;;;;;;5006168;28;20048;-53
2021/04/08 09:03:13;;;;;;;0.98;0.50;;;20.00;54.70;;;;;;5005232;28;20077;-35
2021/04/08 09:05:39;;;;;;;0.47;0.47;;;20.10;54.60;;;;;;5007010;28;20049;-54
2021/04/08 09:08:11;;;;;;;0.68;0.60;;;20.00;54.50;;;;;;5022503;28;20062;-55
2021/04/08 09:10:38;;;;;;;0.82;0.63;;;20.10;54.60;;;;;;5004395;28;20058;-51
2021/04/08 09:13:05;;;;;;;0.68;0.60;;;20.10;55.50;;;;;;5005802;28;20058;-57
2021/04/08 09:15:30;;;;;;;2.95;0.65;;;20.10;56.80;;;;;;5005195;28;20154;-55
2021/04/08 09:17:57;;;;;;;1.33;0.63;;;20.00;56.80;;;;;;5005947;28;20638;-52
2021/04/08 09:20:22;;;;;;;0.68;0.60;;;20.10;58.00;;;;;;5006126;28;20047;-50
2021/04/08 09:22:52;;;;;;;1.60;0.80;;;20.20;55.40;;;;;;5006091;28;20423;-45
2021/04/08 09:25:21;;;;;;;0.50;0.50;;;20.20;55.80;;;;;;5007865;28;20512;-44
2021/04/08 09:27:56;;;;;;;0.60;0.60;;;20.20;55.90;;;;;;5006606;28;20046;-43
2021/04/08 09:33:13;;;;;;;4.72;0.68;;;20.20;54.60;;;;;;5001377;28;20045;-47
2021/04/08 09:35:38;;;;;;;1.25;0.70;;;20.20;54.40;;;;;;5004992;28;20125;-43
2021/04/08 09:38:04;;;;;;;0.95;0.60;;;20.30;52.80;;;;;;5006096;28;20038;-44
2021/04/08 09:40:33;;;;;;;2.38;0.80;;;20.30;52.80;;;;;;5007570;28;20460;-44
2021/04/08 09:43:05;;;;;;;0.95;0.50;;;20.20;53.30;;;;;;5004150;28;20066;-46
2021/04/08 09:45:31;;;;;;;4.95;1.10;;;20.20;50.30;;;;;;5004099;28;20049;-49
2021/04/08 09:48:12;;;;;;;4.43;0.90;;;20.20;51.10;;;;;;5006082;28;20081;-47
2021/04/08 09:50:45;;;;;;;2.22;0.85;;;20.20;49.30;;;;;;5005480;28;20042;-47
2021/04/08 09:53:11;;;;;;;1.70;0.80;;;20.30;49.00;;;;;;5007899;28;20470;-48
2021/04/08 09:55:37;;;;;;;2.85;1.13;;;20.30;48.80;;;;;;5009336;28;20428;-48
2021/04/08 09:58:04;;;;;;;6.10;1.45;;;20.20;50.50;;;;;;5010321;28;20076;-43
2021/04/08 10:00:30;;;;;;;3.92;1.00;;;20.20;50.40;;;;;;5009135;28;20069;-43
2021/04/08 10:03:04;;;;;;;3.47;0.95;;;20.20;51.30;;;;;;5008333;28;20408;-47
2021/04/08 10:05:30;;;;;;;;;;;20.10;51.00;;;;;;5008355;28;20092;-42
2021/04/08 10:07:57;;;;;;;4.57;1.00;;;20.10;51.00;;;;;;5008750;28;19924;-43
2021/04/08 10:10:43;;;;;;;6.00;0.88;;;20.10;51.60;;;;;;5011318;28;20076;-41
2021/04/08 10:13:22;;;;;;;5.45;0.90;;;20.10;51.60;;;;;;5010238;28;20041;-46
2021/04/08 10:15:49;;;;;;;5.50;1.20;;;20.20;49.70;;;;;;5007313;28;20100;-48
2021/04/08 10:18:21;;;;;;;2.22;0.88;;;20.10;48.10;;;;;;5008072;28;20096;-45
2021/04/08 10:20:50;;;;;;;3.08;1.50;;;20.10;48.70;;;;;;5006916;28;20119;-45
2021/04/08 10:23:38;;;;;;;1.55;0.90;;;20.20;46.90;;;;;;5007978;28;20503;-44
2021/04/08 10:26:07;;;;;;;0.73;0.60;;;20.20;46.90;;;;;;5006282;28;20120;-42
2021/04/08 10:28:40;;;;;;;3.72;0.82;;;20.30;46.10;;;;;;5007964;28;20121;-43
2021/04/08 10:31:37;;;;;;;5.32;0.80;;;20.40;47.30;;;;;;4658676;28;10000026;-52
2021/04/08 10:34:07;;;;;;;0.70;0.70;;;20.40;47.00;;;;;;5008447;28;20045;-48
2021/04/08 10:36:36;;;;;;;1.92;0.73;;;20.40;47.20;;;;;;5007018;28;20041;-49
2021/04/08 10:39:19;;;;;;;5.30;0.60;;;20.40;46.70;;;;;;5009338;28;20088;-49
2021/04/08 10:42:07;;;;;;;1.27;0.50;;;20.50;47.20;;;;;;5008259;28;20074;-50
2021/04/08 10:44:43;;;;;;;5.18;0.60;;;20.40;48.60;;;;;;5007490;28;20058;-49
2021/04/08 10:47:13;;;;;;;4.18;0.75;;;20.50;48.90;;;;;;5007800;28;20419;-49
2021/04/08 10:49:43;;;;;;;1.02;0.75;;;20.50;47.90;;;;;;5007581;28;20076;-53
2021/04/08 10:52:15;;;;;;;3.67;0.60;;;20.60;48.30;;;;;;5008760;28;20076;-48
2021/04/08 10:54:42;;;;;;;1.33;0.65;;;20.60;48.30;;;;;;5008338;28;20484;-44
2021/04/08 10:57:08;;;;;;;0.52;0.50;;;20.70;48.50;;;;;;5008448;28;20066;-48
2021/04/08 10:59:34;;;;;;;0.68;0.68;;;20.70;48.90;;;;;;5007844;28;20042;-47
2021/04/08 11:02:01;;;;;;;1.30;0.60;;;20.80;49.20;;;;;;5008135;28;20046;-42
2021/04/08 11:04:26;;;;;;;2.67;0.40;;;20.80;49.20;;;;;;5006903;28;20498;-44
2021/04/08 11:06:52;;;;;;;3.80;0.60;;;20.80;50.00;;;;;;5004296;28;20511;-46
2021/04/08 11:09:30;;;;;;;4.80;0.70;;;20.80;50.50;;;;;;5003694;28;20092;-41
2021/04/08 11:11:56;;;;;;;0.93;0.55;;;20.80;50.60;;;;;;5003788;28;20100;-54
2021/04/08 11:14:26;;;;;;;0.98;0.60;;;20.90;50.90;;;;;;5003146;28;20050;-55
2021/04/08 11:16:54;;;;;;;6.43;0.60;;;21.00;51.10;;;;;;5003182;28;20050;-56
2021/04/08 11:19:19;;;;;;;1.65;0.50;;;21.00;51.10;;;;;;5005070;28;20439;-49
2021/04/08 11:21:45;;;;;;;3.22;1.00;;;21.00;51.20;;;;;;5016112;28;20049;-45
2021/04/08 11:24:11;;;;;;;2.47;0.60;;;21.00;51.00;;;;;;5018119;28;20523;-51
2021/04/08 11:26:47;;;;;;;0.85;0.70;;;20.90;51.20;;;;;;5003386;28;20049;-48
2021/04/08 11:29:19;;;;;;;3.80;0.73;;;20.90;51.20;;;;;;5003977;28;20431;-49
2021/04/08 11:31:46;;;;;;;0.95;0.60;;;21.00;51.50;;;;;;5004000;28;20074;-52
2021/04/08 11:34:11;;;;;;;2.00;0.55;;;21.00;50.80;;;;;;5004761;28;20042;-52
2021/04/08 11:36:37;;;;;;;1.52;0.70;;;20.90;50.50;;;;;;5001786;28;20058;-38
2021/04/08 11:39:13;;;;;;;1.40;0.68;;;20.90;50.50;;;;;;5003805;28;20153;-51
2021/04/08 11:41:39;;;;;;;0.85;0.55;;;20.80;50.90;;;;;;5003240;28;20038;-51
2021/04/08 11:44:05;;;;;;;2.22;0.88;;;20.90;50.80;;;;;;5006729;28;20510;-51
2021/04/08 11:46:32;;;;;;;0.82;0.70;;;20.90;49.80;;;;;;5006900;28;20042;-48
2021/04/08 11:48:59;;;;;;;1.33;0.80;;;20.90;49.40;;;;;;5008290;28;20053;-53
2021/04/08 11:51:26;;;;;;;1.10;1.00;;;20.90;50.30;;;;;;5006181;28;20042;-49
2021/04/08 11:53:52;;;;;;;0.52;0.50;;;20.80;49.50;;;;;;5004871;28;20095;-48
2021/04/08 11:56:29;;;;;;;2.75;0.90;;;20.90;49.30;;;;;;5004759;28;20523;-57
2021/04/08 11:59:23;;;;;;;2.47;0.70;;;20.90;49.30;;;;;;5003124;28;20057;-50
2021/04/08 12:01:52;;;;;;;0.70;0.63;;;20.90;48.70;;;;;;4995790;28;20531;-45
2021/04/08 12:04:19;;;;;;;0.77;0.60;;;20.90;48.00;;;;;;5008729;28;20124;-50
2021/04/08 12:06:49;;;;;;;1.20;1.10;;;20.90;48.60;;;;;;5007049;28;20069;-48
2021/04/08 12:09:14;;;;;;;1.35;0.90;;;20.90;48.60;;;;;;5004558;28;20389;-51
2021/04/08 12:11:54;;;;;;;1.58;0.80;;;20.90;48.40;;;;;;5006558;28;20053;-49
2021/04/08 12:14:20;;;;;;;1.15;0.80;;;21.00;47.70;;;;;;5004106;28;20066;-55
2021/04/08 12:17:08;;;;;;;0.95;0.70;;;21.00;48.00;;;;;;5003363;28;20060;-52
2021/04/08 12:19:35;;;;;;;1.98;0.80;;;21.00;48.10;;;;;;5006000;28;20048;-54
2021/04/08 12:22:11;;;;;;;1.10;1.00;;;21.00;47.80;;;;;;5006437;28;20419;-48
2021/04/08 12:24:37;;;;;;;1.88;0.80;;;21.00;47.80;;;;;;5003769;28;20054;-51
2021/04/08 12:27:24;;;;;;;1.13;0.90;;;21.00;47.60;;;;;;5006514;28;20041;-48
2021/04/08 12:29:49;;;;;;;0.88;0.70;;;21.00;47.50;;;;;;5003306;28;20046;-52
2021/04/08 12:32:15;;;;;;;0.70;0.70;;;21.00;46.80;;;;;;5005465;28;20034;-50
2021/04/08 12:34:40;;;;;;;1.63;0.75;;;21.00;47.70;;;;;;5004925;28;20052;-53
2021/04/08 12:37:07;;;;;;;0.80;0.70;;;21.00;47.40;;;;;;5019571;28;20101;-50
2021/04/08 12:39:32;;;;;;;1.35;0.98;;;21.00;47.50;;;;;;5005503;28;20054;-55
2021/04/08 12:41:58;;;;;;;0.80;0.80;;;21.00;47.70;;;;;;5002150;28;20049;-53
2021/04/08 12:44:23;;;;;;;1.02;0.75;;;21.10;46.70;;;;;;5005568;28;20069;-60
2021/04/08 12:46:49;;;;;;;1.88;1.27;;;21.00;47.10;;;;;;5003804;28;21413;-59
2021/04/08 12:49:15;;;;;;;1.05;0.98;;;21.00;46.50;;;;;;5007141;28;20052;-52
2021/04/08 12:51:40;;;;;;;0.90;0.90;;;21.10;47.00;;;;;;5004512;28;20074;-52
2021/04/08 12:54:06;;;;;;;1.00;1.00;;;21.10;47.20;;;;;;4999839;28;20112;-50
2021/04/08 12:56:32;;;;;;;1.30;1.20;;;21.10;47.10;;;;;;5001021;28;20038;-56
2021/04/08 12:58:57;;;;;;;1.10;1.00;;;21.10;46.80;;;;;;5002626;28;20052;-56
2021/04/08 13:01:23;;;;;;;1.10;1.08;;;21.10;47.00;;;;;;5000537;28;20092;-54
2021/04/08 13:03:48;;;;;;;2.35;1.00;;;21.20;46.70;;;;;;5002992;28;20049;-53
2021/04/08 13:06:14;;;;;;;0.82;0.82;;;21.10;46.70;;;;;;5005758;28;20038;-57
2021/04/08 13:08:40;;;;;;;1.30;1.20;;;21.20;47.00;;;;;;5005848;28;20041;-50
2021/04/08 13:11:05;;;;;;;2.25;1.00;;;21.20;47.00;;;;;;5006619;28;20058;-57
2021/04/08 13:13:31;;;;;;;1.50;1.23;;;21.20;46.20;;;;;;5005276;28;20100;-58
2021/04/08 13:15:56;;;;;;;0.98;0.98;;;21.20;46.50;;;;;;5004869;28;20053;-56
2021/04/08 13:18:22;;;;;;;2.10;0.90;;;21.20;46.90;;;;;;4998052;28;20046;-51
2021/04/08 13:20:49;;;;;;;0.80;0.80;;;21.30;48.60;;;;;;5001347;28;20054;-59
2021/04/08 13:23:15;;;;;;;0.90;0.90;;;21.20;51.60;;;;;;4990999;28;20042;-57
2021/04/08 13:25:40;;;;;;;2.85;0.82;;;21.10;52.20;;;;;;4997613;28;20049;-57
2021/04/08 13:28:06;;;;;;;2.88;1.00;;;21.00;49.80;;;;;;5011212;28;20046;-58
2021/04/08 13:30:31;;;;;;;1.15;1.00;;;21.00;48.20;;;;;;5009714;28;20436;-59
2021/04/08 13:32:57;;;;;;;0.80;0.60;;;21.00;48.20;;;;;;5007936;28;20128;-56
2021/04/08 13:35:23;;;;;;;1.40;0.70;;;21.10;49.90;;;;;;5009807;28;20052;-55
2021/04/08 13:37:52;;;;;;;1.25;0.88;;;21.00;50.40;;;;;;5009399;28;20103;-55
2021/04/08 13:40:18;;;;;;;1.92;0.88;;;21.00;50.00;;;;;;5011351;28;20045;-56
2021/04/08 13:42:44;;;;;;;0.77;0.60;;;20.90;50.00;;;;;;5009301;28;20046;-51
2021/04/08 13:45:10;;;;;;;1.45;0.93;;;21.00;49.90;;;;;;5009494;28;20042;-49
2021/04/08 13:47:36;;;;;;;1.48;0.80;;;21.10;48.80;;;;;;5008117;28;20120;-52
2021/04/08 13:50:03;;;;;;;0.80;0.70;;;21.10;49.90;;;;;;5009533;28;20125;-54
2021/04/08 13:52:28;;;;;;;2.10;0.65;;;21.10;50.20;;;;;;5011969;28;20049;-54
2021/04/08 13:54:56;;;;;;;1.02;0.70;;;21.10;49.60;;;;;;5008680;28;20128;-58
2021/04/08 13:57:22;;;;;;;2.55;0.60;;;21.30;49.60;;;;;;5006384;28;20393;-59
2021/04/08 13:59:47;;;;;;;0.85;0.80;;;21.20;50.80;;;;;;5007491;28;20112;-58
2021/04/08 14:02:13;;;;;;;1.02;0.90;;;21.20;50.30;;;;;;5008729;28;20042;-54
2021/04/08 14:04:38;;;;;;;1.00;0.70;;;21.10;50.00;;;;;;5006222;28;20067;-47
2021/04/08 14:07:04;;;;;;;1.98;0.50;;;21.20;49.20;;;;;;5008939;28;20502;-51
2021/04/08 14:09:29;;;;;;;1.30;0.52;;;21.40;49.30;;;;;;5006307;28;20045;-43
2021/04/08 14:11:55;;;;;;;1.35;0.65;;;21.40;49.30;;;;;;5008631;28;20053;-52
2021/04/08 14:14:21;;;;;;;1.42;0.60;;;21.40;49.30;;;;;;5008877;28;20053;-52
2021/04/08 14:16:46;;;;;;;1.55;0.60;;;21.40;49.40;;;;;;5008217;28;20056;-52
2021/04/08 14:19:12;;;;;;;0.60;0.60;;;21.50;49.00;;;;;;5009746;28;20508;-47
2021/04/08 14:21:38;;;;;;;0.73;0.60;;;21.60;48.90;;;;;;5007686;28;20072;-44
2021/04/08 14:24:04;;;;;;;0.50;0.50;;;21.60;48.90;;;;;;5004555;28;20049;-52
2021/04/08 14:26:30;;;;;;;0.65;0.52;;;21.60;48.80;;;;;;5008026;28;20096;-48
2021/04/08 14:28:57;;;;;;;0.88;0.80;;;21.50;48.70;;;;;;5007471;28;20068;-56
2021/04/08 14:31:23;;;;;;;3.63;0.80;;;21.50;48.90;;;;;;5008151;28;20085;-51
2021/04/08 14:33:48;;;;;;;0.47;0.40;;;21.50;49.20;;;;;;4657993;28;10000910;-54
2021/04/08 14:36:14;;;;;;;0.47;0.47;;;21.40;49.10;;;;;;5004553;28;20053;-54
2021/04/08 14:38:40;;;;;;;0.70;0.55;;;21.40;49.30;;;;;;5003854;28;20046;-50
2021/04/08 14:41:06;;;;;;;0.50;0.50;;;21.30;49.40;;;;;;5000554;28;20121;-52
2021/04/08 14:43:31;;;;;;;1.13;0.60;;;21.30;49.40;;;;;;5006269;28;20198;-54
2021/04/08 14:45:57;;;;;;;0.70;0.70;;;21.20;50.00;;;;;;5001766;28;20569;-50
2021/04/08 14:48:23;;;;;;;0.90;0.75;;;21.20;49.90;;;;;;5003829;28;20073;-52
2021/04/08 14:50:48;;;;;;;0.43;0.40;;;21.20;49.80;;;;;;5005132;28;20511;-49
2021/04/08 14:53:14;;;;;;;1.58;0.60;;;21.30;49.70;;;;;;5003796;28;20042;-54
2021/04/08 14:55:40;;;;;;;1.33;0.63;;;21.30;49.80;;;;;;5005747;28;20609;-57
2021/04/08 14:58:05;;;;;;;1.38;0.60;;;21.40;49.80;;;;;;5003833;28;20168;-52
2021/04/08 15:00:31;;;;;;;1.20;0.43;;;21.40;49.50;;;;;;5001003;28;20058;-57
2021/04/08 15:02:56;;;;;;;0.60;0.60;;;21.50;49.40;;;;;;5000764;28;20042;-55
2021/04/08 15:05:22;;;;;;;1.13;0.60;;;21.40;49.60;;;;;;5003516;28;20056;-43
2021/04/08 15:07:48;;;;;;;0.43;0.43;;;21.40;49.70;;;;;;5000677;28;20046;-56
2021/04/08 15:10:15;;;;;;;0.57;0.40;;;21.40;50.30;;;;;;5002581;28;20073;-57
2021/04/08 15:12:41;;;;;;;1.35;0.60;;;21.40;50.30;;;;;;4998819;28;20046;-57
2021/04/08 15:15:08;;;;;;;1.20;0.63;;;21.50;50.40;;;;;;4998341;28;20070;-56
2021/04/08 15:17:34;;;;;;;0.52;0.50;;;21.50;50.00;;;;;;5000194;28;20057;-48
2021/04/08 15:20:00;;;;;;;1.77;0.70;;;21.60;49.50;;;;;;4996327;28;20152;-56
2021/04/08 15:22:25;;;;;;;0.98;0.70;;;21.60;48.20;;;;;;5005361;28;20052;-54
2021/04/08 15:24:52;;;;;;;0.98;0.70;;;21.50;48.40;;;;;;5003395;28;20464;-54
2021/04/08 15:27:18;;;;;;;1.15;0.80;;;21.40;46.80;;;;;;5004169;28;20141;-55
2021/04/08 15:29:44;;;;;;;1.23;0.93;;;21.40;47.20;;;;;;5003438;28;20126;-51
2021/04/08 15:32:09;;;;;;;1.00;0.90;;;21.40;46.30;;;;;;5000931;28;20049;-54
2021/04/08 15:34:35;;;;;;;1.25;0.77;;;21.30;47.10;;;;;;5005686;28;20042;-53
2021/04/08 15:37:00;;;;;;;0.98;0.95;;;21.30;45.40;;;;;;5005098;28;20057;-49
2021/04/08 15:39:26;;;;;;;0.82;0.82;;;21.30;45.50;;;;;;5003542;28;20050;-48
2021/04/08 15:41:52;;;;;;;1.77;0.75;;;21.20;45.90;;;;;;5002226;28;21921;-48
2021/04/08 15:44:17;;;;;;;1.30;1.20;;;21.20;45.70;;;;;;5004524;28;20385;-52
2021/04/08 15:46:43;;;;;;;1.63;0.95;;;21.10;44.40;;;;;;5003024;28;20554;-42
2021/04/08 15:49:09;;;;;;;1.30;1.20;;;21.20;47.70;;;;;;5004593;28;20069;-54
2021/04/08 15:51:35;;;;;;;0.65;0.65;;;21.20;47.00;;;;;;5002243;28;20144;-54
2021/04/08 15:54:00;;;;;;;1.48;1.25;;;21.20;46.80;;;;;;5002213;28;20407;-44
2021/04/08 15:56:26;;;;;;;1.33;0.90;;;21.20;46.70;;;;;;5003275;28;20074;-43
2021/04/08 15:58:52;;;;;;;2.15;1.05;;;21.20;45.70;;;;;;5001605;28;24775;-48
2021/04/08 16:01:17;;;;;;;1.45;1.20;;;21.20;45.10;;;;;;5005993;28;20462;-53
2021/04/08 16:03:44;;;;;;;1.45;1.35;;;21.20;47.00;;;;;;5003198;28;20061;-46
2021/04/08 16:06:09;;;;;;;1.25;0.98;;;21.20;46.70;;;;;;5002935;28;20060;-47
2021/04/08 16:08:35;;;;;;;0.73;0.73;;;21.20;46.90;;;;;;5003331;28;20054;-51
2021/04/08 16:11:02;;;;;;;1.00;0.90;;;21.40;46.80;;;;;;5000860;28;20054;-53
2021/04/08 16:13:27;;;;;;;1.45;0.98;;;21.40;46.50;;;;;;5002096;28;20154;-53
2021/04/08 16:15:53;;;;;;;0.60;0.60;;;21.50;46.90;;;;;;5001362;28;20882;-56
2021/04/08 16:18:22;;;;;;;0.82;0.70;;;21.50;47.00;;;;;;5003425;28;20247;-56
2021/04/08 16:20:48;;;;;;;1.70;0.68;;;21.60;47.10;;;;;;5002941;28;20051;-56
2021/04/08 16:23:15;;;;;;;1.05;0.70;;;21.60;47.10;;;;;;5002497;28;20076;-57
2021/04/08 16:25:40;;;;;;;0.80;0.80;;;21.60;47.30;;;;;;5004057;28;20046;-52
2021/04/08 16:28:06;;;;;;;0.60;0.60;;;21.60;47.30;;;;;;5003876;28;20061;-56
2021/04/08 16:30:32;;;;;;;2.05;0.70;;;21.60;47.70;;;;;;5002441;28;20042;-54
2021/04/08 16:32:57;;;;;;;0.77;0.77;;;21.60;47.60;;;;;;5002826;28;20046;-57
2021/04/08 16:35:23;;;;;;;0.50;0.50;;;21.50;47.90;;;;;;5002708;28;20072;-52
2021/04/08 16:37:49;;;;;;;0.68;0.68;;;21.50;48.00;;;;;;5002384;28;20072;-55
2021/04/08 16:40:14;;;;;;;0.52;0.50;;;21.40;48.10;;;;;;5004974;28;20057;-56
2021/04/08 16:42:40;;;;;;;0.70;0.70;;;21.40;48.30;;;;;;5003576;28;20081;-49
2021/04/08 16:45:09;;;;;;;1.00;0.50;;;21.40;48.40;;;;;;5001181;28;20045;-53
2021/04/08 16:47:35;;;;;;;0.80;0.60;;;21.30;48.40;;;;;;5002489;28;20041;-53
2021/04/08 16:50:01;;;;;;;0.70;0.70;;;21.40;48.40;;;;;;5001834;28;20141;-53
2021/04/08 16:52:27;;;;;;;0.93;0.68;;;21.40;48.20;;;;;;5004388;28;20206;-50
2021/04/08 16:54:52;;;;;;;1.42;0.75;;;21.40;48.80;;;;;;5000488;28;20053;-57
2021/04/08 16:57:18;;;;;;;0.45;0.40;;;21.40;48.80;;;;;;5001927;28;20050;-56
2021/04/08 16:59:43;;;;;;;1.17;0.68;;;21.40;48.90;;;;;;4999268;28;20573;-50
2021/04/08 17:02:09;;;;;;;0.60;0.60;;;21.40;48.90;;;;;;5000053;28;20748;-58
2021/04/08 17:04:34;;;;;;;0.80;0.63;;;21.50;48.90;;;;;;5006469;28;20042;-60
2021/04/08 17:07:00;;;;;;;7.82;2.00;;;21.50;49.10;;;;;;5006321;28;20096;-57
2021/04/08 17:09:26;;;;;;;1.23;0.60;;;21.40;48.80;;;;;;5004696;28;20137;-46
2021/04/08 17:11:51;;;;;;;0.88;0.50;;;21.40;50.10;;;;;;4999740;28;20072;-47
2021/04/08 17:14:17;;;;;;;0.52;0.52;;;21.40;49.40;;;;;;5006258;28;20565;-44
2021/04/08 17:16:42;;;;;;;0.70;0.65;;;21.30;49.40;;;;;;5003271;28;20037;-49
2021/04/08 17:19:08;;;;;;;0.68;0.68;;;21.20;49.70;;;;;;5004456;28;20388;-47
2021/04/08 17:21:34;;;;;;;0.77;0.75;;;21.20;50.20;;;;;;5003787;28;20080;-32
2021/04/08 17:23:59;;;;;;;0.80;0.50;;;21.20;50.20;;;;;;5004099;28;20046;-33
2021/04/08 17:26:25;;;;;;;0.43;0.38;;;21.20;50.90;;;;;;5005657;28;20052;-32
2021/04/08 17:28:50;;;;;;;0.60;0.60;;;21.20;50.30;;;;;;5005858;28;20040;-34
2021/04/08 17:31:16;;;;;;;1.05;0.50;;;21.10;50.80;;;;;;5006857;28;20579;-33
2021/04/08 17:33:41;;;;;;;1.52;0.60;;;21.00;50.80;;;;;;5005204;28;20463;-34
2021/04/08 17:36:08;;;;;;;2.20;0.50;;;21.10;50.60;;;;;;5004999;28;20102;-33
2021/04/08 17:38:35;;;;;;;0.70;0.60;;;21.00;50.80;;;;;;5004887;28;20080;-34
2021/04/08 17:41:01;;;;;;;1.63;0.50;;;20.90;50.80;;;;;;4999621;28;20088;-37
2021/04/08 17:43:27;;;;;;;0.70;0.70;;;20.80;50.90;;;;;;5003121;28;20531;-34
2021/04/08 17:45:52;;;;;;;0.63;0.63;;;20.80;51.10;;;;;;5001216;28;20150;-34
2021/04/08 17:48:18;;;;;;;1.13;0.60;;;20.70;51.30;;;;;;5001215;28;20412;-33
2021/04/08 17:50:43;;;;;;;0.60;0.50;;;20.90;50.80;;;;;;5001208;28;20076;-33
2021/04/08 17:53:09;;;;;;;1.00;0.80;;;20.90;51.10;;;;;;5000471;28;20093;-34
2021/04/08 17:55:35;;;;;;;1.00;0.90;;;20.80;51.90;;;;;;5003364;28;20126;-36
2021/04/08 17:58:00;;;;;;;1.00;0.75;;;20.90;52.20;;;;;;5002488;28;20500;-33
2021/04/08 18:00:26;;;;;;;3.13;0.80;;;21.00;51.00;;;;;;4999542;28;20061;-36
2021/04/08 18:02:52;;;;;;;0.70;0.70;;;21.00;50.90;;;;;;4996560;28;20125;-35
2021/04/08 18:05:18;;;;;;;0.88;0.88;;;21.10;51.60;;;;;;4998944;28;20500;-35